sensor_id;sensor_type;location;lat;lon;timestamp;pressure;altitude;pressure_sealevel;temperature;humidity
73558;BME280;61829;53.286;10.434;2023-07-13T00:00:12;100996.47;;;17.98;81.50
73558;BME280;61829;53.286;10.434;2023-07-13T00:03:02;100998.59;;;17.95;82.72
73558;BME280;61829;53.286;10.434;2023-07-13T00:05:28;100993.81;;;17.91;83.29
73558;BME280;61829;53.286;10.434;2023-07-13T00:07:54;100995.09;;;17.88;83.54
73558;BME280;61829;53.286;10.434;2023-07-13T00:10:21;101001.25;;;17.84;83.86
73558;BME280;61829;53.286;10.434;2023-07-13T00:12:47;100988.31;;;17.79;84.28
73558;BME280;61829;53.286;10.434;2023-07-13T00:15:18;100992.53;;;17.75;84.31
73558;BME280;61829;53.286;10.434;2023-07-13T00:17:50;100999.47;;;17.71;85.05
73558;BME280;61829;53.286;10.434;2023-07-13T00:20:16;100999.09;;;17.67;85.51
73558;BME280;61829;53.286;10.434;2023-07-13T00:22:42;101001.69;;;17.62;85.98
73558;BME280;61829;53.286;10.434;2023-07-13T00:25:10;101000.09;;;17.55;86.11
73558;BME280;61829;53.286;10.434;2023-07-13T00:27:37;101003.25;;;17.51;86.93
73558;BME280;61829;53.286;10.434;2023-07-13T00:30:03;100998.72;;;17.45;85.97
73558;BME280;61829;53.286;10.434;2023-07-13T00:32:31;100999.63;;;17.39;86.02
73558;BME280;61829;53.286;10.434;2023-07-13T00:34:57;101000.09;;;17.36;86.65
73558;BME280;61829;53.286;10.434;2023-07-13T00:37:24;101001.13;;;17.35;86.12
73558;BME280;61829;53.286;10.434;2023-07-13T00:39:49;101001.38;;;17.34;86.77
73558;BME280;61829;53.286;10.434;2023-07-13T00:42:15;101004.38;;;17.25;87.64
73558;BME280;61829;53.286;10.434;2023-07-13T00:45:01;101003.75;;;17.23;87.20
73558;BME280;61829;53.286;10.434;2023-07-13T00:47:26;101001.13;;;17.17;87.64
73558;BME280;61829;53.286;10.434;2023-07-13T00:49:52;100996.94;;;17.14;87.77
73558;BME280;61829;53.286;10.434;2023-07-13T00:52:19;101003.91;;;17.10;87.05
73558;BME280;61829;53.286;10.434;2023-07-13T00:54:45;100999.94;;;17.06;87.86
73558;BME280;61829;53.286;10.434;2023-07-13T00:57:18;101004.19;;;17.02;88.14
73558;BME280;61829;53.286;10.434;2023-07-13T00:59:48;101002.78;;;16.93;89.09
73558;BME280;61829;53.286;10.434;2023-07-13T01:02:15;101005.19;;;16.82;89.41
73558;BME280;61829;53.286;10.434;2023-07-13T01:04:41;100999.38;;;16.79;89.82
73558;BME280;61829;53.286;10.434;2023-07-13T01:07:10;101007.31;;;16.74;89.76
73558;BME280;61829;53.286;10.434;2023-07-13T01:09:37;101005.25;;;16.69;90.45
73558;BME280;61829;53.286;10.434;2023-07-13T01:12:04;101011.59;;;16.63;90.14
73558;BME280;61829;53.286;10.434;2023-07-13T01:14:30;101006.78;;;16.58;90.61
73558;BME280;61829;53.286;10.434;2023-07-13T01:16:56;100993.88;;;16.54;90.32
73558;BME280;61829;53.286;10.434;2023-07-13T01:22:10;101002.47;;;16.51;90.17
73558;BME280;61829;53.286;10.434;2023-07-13T01:24:39;101009.19;;;16.48;89.98
73558;BME280;61829;53.286;10.434;2023-07-13T01:27:08;101007.72;;;16.46;89.99
73558;BME280;61829;53.286;10.434;2023-07-13T01:29:36;101013.63;;;16.43;89.93
73558;BME280;61829;53.286;10.434;2023-07-13T01:32:08;101019.69;;;16.38;90.84
73558;BME280;61829;53.286;10.434;2023-07-13T01:34:34;101013.88;;;16.34;90.27
73558;BME280;61829;53.286;10.434;2023-07-13T01:37:00;101017.47;;;16.28;91.11
73558;BME280;61829;53.286;10.434;2023-07-13T01:39:26;101021.91;;;16.23;91.47
73558;BME280;61829;53.286;10.434;2023-07-13T01:41:52;101016.28;;;16.17;91.51
73558;BME280;61829;53.286;10.434;2023-07-13T01:44:24;101021.06;;;16.15;91.38
73558;BME280;61829;53.286;10.434;2023-07-13T01:46:50;101021.94;;;16.09;91.21
73558;BME280;61829;53.286;10.434;2023-07-13T01:49:16;101020.28;;;16.08;90.74
73558;BME280;61829;53.286;10.434;2023-07-13T01:51:42;101012.34;;;16.07;90.08
73558;BME280;61829;53.286;10.434;2023-07-13T01:54:07;101024.47;;;16.04;90.73
73558;BME280;61829;53.286;10.434;2023-07-13T01:56:33;101021.16;;;16.02;91.49
73558;BME280;61829;53.286;10.434;2023-07-13T01:58:59;101022.44;;;16.00;91.66
73558;BME280;61829;53.286;10.434;2023-07-13T02:01:25;101015.75;;;15.96;91.66
73558;BME280;61829;53.286;10.434;2023-07-13T02:03:51;101027.28;;;15.91;91.86
73558;BME280;61829;53.286;10.434;2023-07-13T02:06:17;101019.53;;;15.88;91.69
73558;BME280;61829;53.286;10.434;2023-07-13T02:08:42;101031.06;;;15.83;91.83
73558;BME280;61829;53.286;10.434;2023-07-13T02:11:09;101020.81;;;15.79;90.88
73558;BME280;61829;53.286;10.434;2023-07-13T02:17:44;101027.34;;;15.71;91.51
73558;BME280;61829;53.286;10.434;2023-07-13T02:20:10;101027.94;;;15.66;91.33
73558;BME280;61829;53.286;10.434;2023-07-13T02:22:36;101032.13;;;15.62;92.30
73558;BME280;61829;53.286;10.434;2023-07-13T02:25:02;101022.75;;;15.58;91.74
73558;BME280;61829;53.286;10.434;2023-07-13T02:27:28;101030.06;;;15.58;91.07
73558;BME280;61829;53.286;10.434;2023-07-13T02:29:54;101022.53;;;15.53;91.56
73558;BME280;61829;53.286;10.434;2023-07-13T02:32:19;101032.19;;;15.49;91.95
73558;BME280;61829;53.286;10.434;2023-07-13T02:34:45;101030.91;;;15.45;91.90
73558;BME280;61829;53.286;10.434;2023-07-13T02:37:11;101027.59;;;15.43;91.90
73558;BME280;61829;53.286;10.434;2023-07-13T02:39:37;101026.97;;;15.41;91.55
73558;BME280;61829;53.286;10.434;2023-07-13T02:42:04;101026.34;;;15.39;91.20
73558;BME280;61829;53.286;10.434;2023-07-13T02:44:30;101029.28;;;15.37;91.66
73558;BME280;61829;53.286;10.434;2023-07-13T02:46:56;101024.66;;;15.31;91.75
73558;BME280;61829;53.286;10.434;2023-07-13T02:49:22;101020.72;;;15.27;91.74
73558;BME280;61829;53.286;10.434;2023-07-13T02:52:19;101027.41;;;15.24;91.90
73558;BME280;61829;53.286;10.434;2023-07-13T02:54:45;101032.00;;;15.24;91.79
73558;BME280;61829;53.286;10.434;2023-07-13T02:57:11;101027.63;;;15.23;91.37
73558;BME280;61829;53.286;10.434;2023-07-13T02:59:36;101025.13;;;15.21;91.46
73558;BME280;61829;53.286;10.434;2023-07-13T03:02:03;101025.31;;;15.20;91.03
73558;BME280;61829;53.286;10.434;2023-07-13T03:04:29;101031.78;;;15.19;91.40
73558;BME280;61829;53.286;10.434;2023-07-13T03:06:55;101026.78;;;15.16;91.10
73558;BME280;61829;53.286;10.434;2023-07-13T03:09:24;101028.88;;;15.14;91.39
73558;BME280;61829;53.286;10.434;2023-07-13T03:11:53;101030.97;;;15.12;91.06
73558;BME280;61829;53.286;10.434;2023-07-13T03:14:24;101033.06;;;15.10;91.86
73558;BME280;61829;53.286;10.434;2023-07-13T03:20:59;101034.50;;;15.05;91.58
73558;BME280;61829;53.286;10.434;2023-07-13T03:23:25;101033.91;;;15.03;91.35
73558;BME280;61829;53.286;10.434;2023-07-13T03:26:01;101039.34;;;15.03;91.69
73558;BME280;61829;53.286;10.434;2023-07-13T03:28:27;101033.28;;;15.01;91.86
73558;BME280;61829;53.286;10.434;2023-07-13T03:31:16;101034.72;;;15.04;91.58
73558;BME280;61829;53.286;10.434;2023-07-13T03:33:43;101033.69;;;15.05;92.03
73558;BME280;61829;53.286;10.434;2023-07-13T03:36:29;101031.38;;;15.02;91.56
73558;BME280;61829;53.286;10.434;2023-07-13T03:38:58;101041.81;;;15.05;91.72
73558;BME280;61829;53.286;10.434;2023-07-13T03:41:25;101032.84;;;15.04;92.23
73558;BME280;61829;53.286;10.434;2023-07-13T03:43:51;101044.53;;;15.05;91.91
73558;BME280;61829;53.286;10.434;2023-07-13T03:46:17;101041.63;;;15.07;91.33
73558;BME280;61829;53.286;10.434;2023-07-13T03:48:45;101036.81;;;15.09;91.13
73558;BME280;61829;53.286;10.434;2023-07-13T03:51:12;101041.84;;;15.12;91.75
73558;BME280;61829;53.286;10.434;2023-07-13T03:53:42;101046.41;;;15.11;91.44
73558;BME280;61829;53.286;10.434;2023-07-13T03:56:09;101042.03;;;15.10;91.46
73558;BME280;61829;53.286;10.434;2023-07-13T03:58:39;101044.75;;;15.10;91.81
73558;BME280;61829;53.286;10.434;2023-07-13T04:01:08;101045.16;;;15.07;91.71
73558;BME280;61829;53.286;10.434;2023-07-13T04:03:35;101035.97;;;15.08;92.14
73558;BME280;61829;53.286;10.434;2023-07-13T04:06:01;101041.19;;;15.16;92.25
73558;BME280;61829;53.286;10.434;2023-07-13T04:08:29;101042.00;;;15.30;92.02
73558;BME280;61829;53.286;10.434;2023-07-13T04:10:56;101038.66;;;15.41;91.04
73558;BME280;61829;53.286;10.434;2023-07-13T04:13:22;101040.28;;;15.56;90.17
73558;BME280;61829;53.286;10.434;2023-07-13T04:15:48;101046.78;;;15.75;89.54
73558;BME280;61829;53.286;10.434;2023-07-13T04:18:14;101043.16;;;15.94;88.20
73558;BME280;61829;53.286;10.434;2023-07-13T04:20:40;101045.94;;;16.19;87.58
73558;BME280;61829;53.286;10.434;2023-07-13T04:23:06;101041.00;;;16.48;86.39
73558;BME280;61829;53.286;10.434;2023-07-13T04:25:32;101048.34;;;16.79;84.98
73558;BME280;61829;53.286;10.434;2023-07-13T04:27:58;101037.88;;;17.08;83.60
73558;BME280;61829;53.286;10.434;2023-07-13T04:30:24;101046.78;;;17.40;82.02
73558;BME280;61829;53.286;10.434;2023-07-13T04:32:51;101041.59;;;17.75;80.43
73558;BME280;61829;53.286;10.434;2023-07-13T04:35:19;101051.06;;;18.09;77.98
73558;BME280;61829;53.286;10.434;2023-07-13T04:38:20;101043.63;;;18.47;75.85
73558;BME280;61829;53.286;10.434;2023-07-13T04:40:47;101044.78;;;18.69;74.80
73558;BME280;61829;53.286;10.434;2023-07-13T04:43:13;101043.44;;;19.02;72.94
73558;BME280;61829;53.286;10.434;2023-07-13T04:45:39;101044.50;;;19.24;72.48
73558;BME280;61829;53.286;10.434;2023-07-13T04:48:05;101040.25;;;19.52;70.18
73558;BME280;61829;53.286;10.434;2023-07-13T04:50:31;101026.94;;;19.44;69.82
73558;BME280;61829;53.286;10.434;2023-07-13T04:52:57;101035.97;;;19.33;70.78
73558;BME280;61829;53.286;10.434;2023-07-13T04:55:23;101037.25;;;19.30;70.80
73558;BME280;61829;53.286;10.434;2023-07-13T04:57:49;101035.00;;;19.15;70.34
73558;BME280;61829;53.286;10.434;2023-07-13T05:00:15;101039.50;;;18.98;70.97
73558;BME280;61829;53.286;10.434;2023-07-13T05:02:44;101032.50;;;18.90;71.03
73558;BME280;61829;53.286;10.434;2023-07-13T05:05:10;101032.16;;;19.10;70.66
73558;BME280;61829;53.286;10.434;2023-07-13T05:07:35;101022.41;;;19.49;68.95
73558;BME280;61829;53.286;10.434;2023-07-13T05:10:02;101035.22;;;19.96;67.57
73558;BME280;61829;53.286;10.434;2023-07-13T05:12:30;101031.94;;;20.39;65.78
73558;BME280;61829;53.286;10.434;2023-07-13T05:14:56;101028.88;;;20.81;64.42
73558;BME280;61829;53.286;10.434;2023-07-13T05:17:22;101032.63;;;21.26;62.32
73558;BME280;61829;53.286;10.434;2023-07-13T05:19:48;101036.94;;;21.78;60.78
73558;BME280;61829;53.286;10.434;2023-07-13T05:22:14;101035.53;;;22.19;58.88
73558;BME280;61829;53.286;10.434;2023-07-13T05:24:39;101034.94;;;22.17;58.53
73558;BME280;61829;53.286;10.434;2023-07-13T05:27:06;101046.91;;;22.55;57.58
73558;BME280;61829;53.286;10.434;2023-07-13T05:29:31;101044.50;;;22.91;55.85
73558;BME280;61829;53.286;10.434;2023-07-13T05:31:57;101042.69;;;23.44;54.76
73558;BME280;61829;53.286;10.434;2023-07-13T05:34:23;101047.03;;;23.77;53.63
73558;BME280;61829;53.286;10.434;2023-07-13T05:36:49;101052.13;;;24.06;51.05
73558;BME280;61829;53.286;10.434;2023-07-13T05:39:16;101056.59;;;24.27;50.85
73558;BME280;61829;53.286;10.434;2023-07-13T05:41:42;101064.16;;;24.57;49.10
73558;BME280;61829;53.286;10.434;2023-07-13T05:44:08;101059.22;;;25.00;48.62
73558;BME280;61829;53.286;10.434;2023-07-13T05:46:34;101065.53;;;25.47;47.18
73558;BME280;61829;53.286;10.434;2023-07-13T05:49:00;101063.53;;;25.73;46.64
73558;BME280;61829;53.286;10.434;2023-07-13T05:51:26;101067.69;;;25.86;45.85
73558;BME280;61829;53.286;10.434;2023-07-13T05:53:51;101064.53;;;26.13;45.38
73558;BME280;61829;53.286;10.434;2023-07-13T05:56:17;101075.41;;;26.43;45.20
73558;BME280;61829;53.286;10.434;2023-07-13T05:58:43;101068.75;;;26.55;44.47
73558;BME280;61829;53.286;10.434;2023-07-13T06:01:11;101073.03;;;26.76;44.17
73558;BME280;61829;53.286;10.434;2023-07-13T06:03:38;101073.88;;;27.06;43.96
73558;BME280;61829;53.286;10.434;2023-07-13T06:06:05;101076.97;;;27.39;43.63
73558;BME280;61829;53.286;10.434;2023-07-13T06:08:31;101070.97;;;27.56;42.76
73558;BME280;61829;53.286;10.434;2023-07-13T06:13:35;101069.53;;;27.87;41.94
73558;BME280;61829;53.286;10.434;2023-07-13T06:16:02;101072.19;;;28.16;41.53
73558;BME280;61829;53.286;10.434;2023-07-13T06:18:33;101072.06;;;28.51;40.58
73558;BME280;61829;53.286;10.434;2023-07-13T06:21:12;101085.53;;;28.76;40.18
73558;BME280;61829;53.286;10.434;2023-07-13T06:23:39;101088.25;;;28.62;40.32
73558;BME280;61829;53.286;10.434;2023-07-13T06:26:06;101094.53;;;28.49;40.14
73558;BME280;61829;53.286;10.434;2023-07-13T06:32:32;101096.31;;;28.78;40.46
73558;BME280;61829;53.286;10.434;2023-07-13T06:34:58;101101.13;;;28.91;40.25
73558;BME280;61829;53.286;10.434;2023-07-13T06:37:24;101094.44;;;28.73;40.14
73558;BME280;61829;53.286;10.434;2023-07-13T06:39:50;101099.91;;;28.78;40.08
73558;BME280;61829;53.286;10.434;2023-07-13T06:42:16;101095.66;;;28.67;40.64
73558;BME280;61829;53.286;10.434;2023-07-13T06:44:43;101109.31;;;28.82;40.59
73558;BME280;61829;53.286;10.434;2023-07-13T06:47:09;101102.94;;;28.82;40.60
73558;BME280;61829;53.286;10.434;2023-07-13T06:49:34;101101.59;;;28.60;40.79
73558;BME280;61829;53.286;10.434;2023-07-13T06:52:00;101107.25;;;28.50;40.31
73558;BME280;61829;53.286;10.434;2023-07-13T06:54:26;101109.47;;;28.29;41.03
73558;BME280;61829;53.286;10.434;2023-07-13T06:56:52;101097.22;;;28.11;42.07
73558;BME280;61829;53.286;10.434;2023-07-13T06:59:19;101104.13;;;27.90;42.04
73558;BME280;61829;53.286;10.434;2023-07-13T07:01:45;101105.50;;;27.63;42.47
73558;BME280;61829;53.286;10.434;2023-07-13T07:04:10;101109.78;;;27.80;42.43
73558;BME280;61829;53.286;10.434;2023-07-13T07:06:36;101107.56;;;27.76;43.02
73558;BME280;61829;53.286;10.434;2023-07-13T07:09:02;101100.94;;;28.02;41.56
73558;BME280;61829;53.286;10.434;2023-07-13T07:11:28;101111.34;;;28.34;41.06
73558;BME280;61829;53.286;10.434;2023-07-13T07:13:54;101105.56;;;28.30;40.79
73558;BME280;61829;53.286;10.434;2023-07-13T07:16:21;101106.16;;;28.51;40.46
73558;BME280;61829;53.286;10.434;2023-07-13T07:18:47;101109.75;;;28.71;40.42
73558;BME280;61829;53.286;10.434;2023-07-13T07:21:14;101100.38;;;28.67;40.12
73558;BME280;61829;53.286;10.434;2023-07-13T07:23:40;101107.09;;;28.98;40.09
73558;BME280;61829;53.286;10.434;2023-07-13T07:26:06;101112.97;;;29.29;39.57
73558;BME280;61829;53.286;10.434;2023-07-13T07:28:34;101118.50;;;29.16;38.92
73558;BME280;61829;53.286;10.434;2023-07-13T07:31:00;101103.75;;;28.63;39.78
73558;BME280;61829;53.286;10.434;2023-07-13T07:33:26;101106.13;;;28.70;40.43
73558;BME280;61829;53.286;10.434;2023-07-13T07:35:52;101105.91;;;28.67;40.02
73558;BME280;61829;53.286;10.434;2023-07-13T07:38:18;101099.25;;;28.68;40.23
73558;BME280;61829;53.286;10.434;2023-07-13T07:40:57;101111.38;;;29.09;39.50
73558;BME280;61829;53.286;10.434;2023-07-13T07:43:23;101109.22;;;29.39;39.19
73558;BME280;61829;53.286;10.434;2023-07-13T07:45:49;101106.88;;;29.60;38.44
73558;BME280;61829;53.286;10.434;2023-07-13T07:48:15;101100.69;;;29.49;37.91
73558;BME280;61829;53.286;10.434;2023-07-13T07:50:42;101099.66;;;29.45;37.63
73558;BME280;61829;53.286;10.434;2023-07-13T07:53:08;101102.50;;;29.26;37.79
73558;BME280;61829;53.286;10.434;2023-07-13T07:55:36;101112.00;;;29.39;38.55
73558;BME280;61829;53.286;10.434;2023-07-13T07:58:02;101101.03;;;29.15;38.67
73558;BME280;61829;53.286;10.434;2023-07-13T08:00:31;101109.81;;;29.03;38.46
73558;BME280;61829;53.286;10.434;2023-07-13T08:02:58;101111.09;;;28.73;39.38
73558;BME280;61829;53.286;10.434;2023-07-13T08:05:24;101113.56;;;28.94;38.80
73558;BME280;61829;53.286;10.434;2023-07-13T08:07:50;101109.72;;;28.90;39.37
73558;BME280;61829;53.286;10.434;2023-07-13T08:10:16;101115.66;;;29.02;38.46
73558;BME280;61829;53.286;10.434;2023-07-13T08:12:42;101116.47;;;29.02;38.23
73558;BME280;61829;53.286;10.434;2023-07-13T08:15:13;101111.94;;;28.74;38.95
73558;BME280;61829;53.286;10.434;2023-07-13T08:17:39;101112.88;;;29.02;38.61
73558;BME280;61829;53.286;10.434;2023-07-13T08:20:06;101113.88;;;29.11;37.86
73558;BME280;61829;53.286;10.434;2023-07-13T08:22:33;101109.88;;;29.17;37.02
73558;BME280;61829;53.286;10.434;2023-07-13T08:24:59;101117.47;;;29.12;36.85
73558;BME280;61829;53.286;10.434;2023-07-13T08:27:27;101119.09;;;29.13;37.38
73558;BME280;61829;53.286;10.434;2023-07-13T08:29:54;101107.22;;;29.26;37.43
73558;BME280;61829;53.286;10.434;2023-07-13T08:32:22;101116.41;;;29.40;37.05
73558;BME280;61829;53.286;10.434;2023-07-13T08:34:48;101120.75;;;29.14;36.75
73558;BME280;61829;53.286;10.434;2023-07-13T08:37:15;101107.75;;;29.28;37.48
73558;BME280;61829;53.286;10.434;2023-07-13T08:39:41;101109.53;;;29.05;37.29
73558;BME280;61829;53.286;10.434;2023-07-13T08:47:33;101113.22;;;29.33;37.94
73558;BME280;61829;53.286;10.434;2023-07-13T08:50:02;101106.00;;;29.32;36.86
73558;BME280;61829;53.286;10.434;2023-07-13T08:52:39;101111.06;;;29.30;36.68
73558;BME280;61829;53.286;10.434;2023-07-13T08:55:28;101107.66;;;29.33;36.69
73558;BME280;61829;53.286;10.434;2023-07-13T08:58:02;101106.75;;;29.38;36.42
73558;BME280;61829;53.286;10.434;2023-07-13T09:00:38;101104.16;;;29.27;35.91
73558;BME280;61829;53.286;10.434;2023-07-13T09:03:18;101110.13;;;29.35;36.66
73558;BME280;61829;53.286;10.434;2023-07-13T09:05:55;101112.34;;;29.19;36.48
73558;BME280;61829;53.286;10.434;2023-07-13T09:10:53;101111.91;;;29.58;36.32
73558;BME280;61829;53.286;10.434;2023-07-13T09:13:33;101108.59;;;29.42;36.06
73558;BME280;61829;53.286;10.434;2023-07-13T09:16:03;101106.81;;;29.32;36.99
73558;BME280;61829;53.286;10.434;2023-07-13T09:21:38;101119.63;;;28.58;37.55
73558;BME280;61829;53.286;10.434;2023-07-13T09:24:38;101113.59;;;28.32;38.05
73558;BME280;61829;53.286;10.434;2023-07-13T09:27:29;101104.81;;;28.49;37.87
73558;BME280;61829;53.286;10.434;2023-07-13T09:30:20;101103.16;;;28.67;36.63
73558;BME280;61829;53.286;10.434;2023-07-13T09:32:52;101114.53;;;28.84;36.69
73558;BME280;61829;53.286;10.434;2023-07-13T09:35:22;101108.25;;;28.78;36.74
73558;BME280;61829;53.286;10.434;2023-07-13T09:37:49;101102.41;;;28.80;35.66
73558;BME280;61829;53.286;10.434;2023-07-13T09:40:39;101098.06;;;28.74;36.33
73558;BME280;61829;53.286;10.434;2023-07-13T09:43:10;101099.16;;;28.73;36.69
73558;BME280;61829;53.286;10.434;2023-07-13T09:45:38;101103.72;;;29.01;36.52
73558;BME280;61829;53.286;10.434;2023-07-13T09:48:07;101097.53;;;28.72;36.54
73558;BME280;61829;53.286;10.434;2023-07-13T09:50:38;101101.03;;;28.39;37.62
73558;BME280;61829;53.286;10.434;2023-07-13T09:53:11;101117.28;;;28.03;40.08
73558;BME280;61829;53.286;10.434;2023-07-13T09:55:38;101119.81;;;27.70;41.13
73558;BME280;61829;53.286;10.434;2023-07-13T09:58:08;101115.78;;;27.28;43.17
73558;BME280;61829;53.286;10.434;2023-07-13T10:00:37;101119.72;;;26.83;44.61
73558;BME280;61829;53.286;10.434;2023-07-13T10:03:16;101130.66;;;26.59;46.33
73558;BME280;61829;53.286;10.434;2023-07-13T10:05:44;101109.69;;;26.42;46.08
73558;BME280;61829;53.286;10.434;2023-07-13T10:08:37;101128.19;;;26.47;46.10
73558;BME280;61829;53.286;10.434;2023-07-13T10:11:18;101132.72;;;26.23;47.01
73558;BME280;61829;53.286;10.434;2023-07-13T10:13:57;101130.31;;;25.95;45.84
73558;BME280;61829;53.286;10.434;2023-07-13T10:16:34;101133.56;;;26.18;45.86
73558;BME280;61829;53.286;10.434;2023-07-13T10:19:34;101116.91;;;26.38;45.10
73558;BME280;61829;53.286;10.434;2023-07-13T10:21:56;101110.91;;;26.81;44.82
73558;BME280;61829;53.286;10.434;2023-07-13T10:24:25;101107.88;;;27.17;43.50
73558;BME280;61829;53.286;10.434;2023-07-13T10:27:17;101105.00;;;27.56;42.01
73558;BME280;61829;53.286;10.434;2023-07-13T10:29:50;101099.63;;;27.94;40.30
73558;BME280;61829;53.286;10.434;2023-07-13T10:32:21;101098.81;;;28.17;39.66
73558;BME280;61829;53.286;10.434;2023-07-13T10:34:48;101090.09;;;28.05;38.48
73558;BME280;61829;53.286;10.434;2023-07-13T10:37:20;101104.41;;;28.12;40.11
73558;BME280;61829;53.286;10.434;2023-07-13T10:39:48;101107.94;;;27.94;39.58
73558;BME280;61829;53.286;10.434;2023-07-13T10:42:30;101114.69;;;27.59;39.89
73558;BME280;61829;53.286;10.434;2023-07-13T10:44:58;101108.09;;;27.20;41.27
73558;BME280;61829;53.286;10.434;2023-07-13T10:47:25;101113.72;;;27.10;42.00
73558;BME280;61829;53.286;10.434;2023-07-13T10:49:56;101116.50;;;27.05;42.90
73558;BME280;61829;53.286;10.434;2023-07-13T10:52:42;101119.31;;;27.00;43.22
73558;BME280;61829;53.286;10.434;2023-07-13T10:55:36;101120.81;;;26.87;42.74
73558;BME280;61829;53.286;10.434;2023-07-13T10:58:15;101118.16;;;26.67;42.39
73558;BME280;61829;53.286;10.434;2023-07-13T11:03:22;101111.41;;;26.83;42.02
73558;BME280;61829;53.286;10.434;2023-07-13T11:05:51;101109.16;;;26.90;42.27
73558;BME280;61829;53.286;10.434;2023-07-13T11:08:32;101107.41;;;27.04;41.28
73558;BME280;61829;53.286;10.434;2023-07-13T11:15:09;101107.09;;;27.06;39.67
73558;BME280;61829;53.286;10.434;2023-07-13T11:17:48;101114.31;;;27.02;39.95
73558;BME280;61829;53.286;10.434;2023-07-13T11:25:34;101109.84;;;27.06;39.96
73558;BME280;61829;53.286;10.434;2023-07-13T11:28:16;101115.44;;;27.01;39.23
73558;BME280;61829;53.286;10.434;2023-07-13T11:33:29;101112.72;;;26.96;38.69
73558;BME280;61829;53.286;10.434;2023-07-13T11:40:54;101107.72;;;26.58;39.03
73558;BME280;61829;53.286;10.434;2023-07-13T11:43:21;101104.06;;;26.63;40.08
73558;BME280;61829;53.286;10.434;2023-07-13T11:45:51;101104.03;;;26.73;40.19
73558;BME280;61829;53.286;10.434;2023-07-13T11:48:22;101101.84;;;26.70;39.99
73558;BME280;61829;53.286;10.434;2023-07-13T11:51:04;101105.38;;;26.81;39.32
73558;BME280;61829;53.286;10.434;2023-07-13T11:53:39;101106.19;;;26.81;37.93
73558;BME280;61829;53.286;10.434;2023-07-13T11:56:06;101107.78;;;26.87;39.16
73558;BME280;61829;53.286;10.434;2023-07-13T11:58:33;101109.81;;;27.16;38.74
73558;BME280;61829;53.286;10.434;2023-07-13T12:01:01;101104.63;;;27.39;38.71
73558;BME280;61829;53.286;10.434;2023-07-13T12:03:32;101094.25;;;27.54;38.16
73558;BME280;61829;53.286;10.434;2023-07-13T12:06:02;101109.97;;;27.59;37.74
73558;BME280;61829;53.286;10.434;2023-07-13T12:08:38;101110.09;;;27.73;37.46
73558;BME280;61829;53.286;10.434;2023-07-13T12:11:15;101114.22;;;27.75;35.85
73558;BME280;61829;53.286;10.434;2023-07-13T12:13:46;101116.31;;;27.60;35.50
73558;BME280;61829;53.286;10.434;2023-07-13T12:16:29;101105.25;;;27.60;36.43
73558;BME280;61829;53.286;10.434;2023-07-13T12:19:00;101114.44;;;27.55;35.34
73558;BME280;61829;53.286;10.434;2023-07-13T12:21:38;101112.00;;;27.48;35.72
73558;BME280;61829;53.286;10.434;2023-07-13T12:24:11;101116.88;;;27.33;36.15
73558;BME280;61829;53.286;10.434;2023-07-13T12:26:39;101105.09;;;27.17;35.89
73558;BME280;61829;53.286;10.434;2023-07-13T12:29:06;101120.66;;;27.07;36.92
73558;BME280;61829;53.286;10.434;2023-07-13T12:31:41;101127.97;;;26.88;37.34
73558;BME280;61829;53.286;10.434;2023-07-13T12:34:10;101127.53;;;26.71;38.31
73558;BME280;61829;53.286;10.434;2023-07-13T12:36:46;101135.94;;;26.55;42.00
73558;BME280;61829;53.286;10.434;2023-07-13T12:39:19;101136.22;;;26.43;42.67
73558;BME280;61829;53.286;10.434;2023-07-13T12:41:46;101139.31;;;26.32;41.57
73558;BME280;61829;53.286;10.434;2023-07-13T12:44:19;101136.03;;;26.25;42.47
73558;BME280;61829;53.286;10.434;2023-07-13T12:46:54;101142.97;;;26.12;42.34
73558;BME280;61829;53.286;10.434;2023-07-13T12:49:25;101149.38;;;25.82;42.60
73558;BME280;61829;53.286;10.434;2023-07-13T12:51:59;101157.69;;;25.71;43.44
73558;BME280;61829;53.286;10.434;2023-07-13T12:54:27;101164.34;;;25.70;43.46
73558;BME280;61829;53.286;10.434;2023-07-13T12:56:55;101177.56;;;25.58;43.00
73558;BME280;61829;53.286;10.434;2023-07-13T12:59:27;101182.25;;;25.47;42.72
73558;BME280;61829;53.286;10.434;2023-07-13T13:01:55;101212.03;;;25.25;43.48
73558;BME280;61829;53.286;10.434;2023-07-13T13:04:21;101239.47;;;24.79;46.02
73558;BME280;61829;53.286;10.434;2023-07-13T13:06:48;101246.09;;;24.25;49.11
73558;BME280;61829;53.286;10.434;2023-07-13T13:09:17;101258.53;;;23.63;52.57
73558;BME280;61829;53.286;10.434;2023-07-13T13:11:48;101268.19;;;23.12;55.80
73558;BME280;61829;53.286;10.434;2023-07-13T13:14:16;101286.03;;;22.65;55.42
73558;BME280;61829;53.286;10.434;2023-07-13T13:16:47;101283.91;;;22.33;57.24
73558;BME280;61829;53.286;10.434;2023-07-13T13:21:46;101294.06;;;21.99;58.49
73558;BME280;61829;53.286;10.434;2023-07-13T13:24:18;101297.16;;;21.86;60.25
73558;BME280;61829;53.286;10.434;2023-07-13T13:26:46;101292.22;;;21.71;60.92
73558;BME280;61829;53.286;10.434;2023-07-13T13:29:15;101297.88;;;21.64;62.79
73558;BME280;61829;53.286;10.434;2023-07-13T13:31:43;101295.19;;;21.52;63.67
73558;BME280;61829;53.286;10.434;2023-07-13T13:34:12;101295.44;;;21.51;65.08
73558;BME280;61829;53.286;10.434;2023-07-13T13:36:40;101293.59;;;21.28;65.99
73558;BME280;61829;53.286;10.434;2023-07-13T13:39:32;101297.22;;;21.17;67.54
73558;BME280;61829;53.286;10.434;2023-07-13T13:41:59;101304.13;;;21.19;67.82